createdAt,value
2018-05-14T00:00:08.254Z,58.25
2018-05-14T00:01:12.704Z,51.00
2018-05-14T00:02:16.942Z,57.50
2018-05-14T00:03:21.071Z,47.75
2018-05-14T00:04:26.002Z,53.25
2018-05-14T00:05:30.143Z,55.00
2018-05-14T00:06:34.638Z,52.00
2018-05-14T00:07:39.682Z,60.50
2018-05-14T00:08:43.818Z,50.25
2018-05-14T00:09:47.953Z,46.75
2018-05-14T00:10:52.098Z,52.00
2018-05-14T00:11:56.303Z,55.00
2018-05-14T00:13:00.766Z,50.75
2018-05-14T00:14:04.896Z,49.25
2018-05-14T00:15:09.248Z,48.00
2018-05-14T00:16:13.446Z,60.00
2018-05-14T00:17:17.567Z,53.00
2018-05-14T00:18:21.756Z,54.00
2018-05-14T00:19:26.231Z,46.50
2018-05-14T00:20:30.419Z,59.50
2018-05-14T00:21:35.080Z,54.75
2018-05-14T00:22:39.176Z,59.50
2018-05-14T00:23:44.321Z,50.00
2018-05-14T00:24:48.452Z,54.25
2018-05-14T00:25:53.657Z,57.50
2018-05-14T00:26:57.794Z,42.50
2018-05-14T00:28:02.072Z,54.00
2018-05-14T00:29:06.185Z,47.25
2018-05-14T00:30:12.572Z,53.25
2018-05-14T00:31:16.686Z,54.50
2018-05-14T00:32:20.791Z,49.50
2018-05-14T00:33:25.058Z,51.00
2018-05-14T00:34:29.237Z,51.50
2018-05-14T00:35:33.456Z,48.00
2018-05-14T00:36:37.575Z,55.25
2018-05-14T00:37:41.697Z,46.50
2018-05-14T00:38:46.228Z,49.50
2018-05-14T00:39:50.362Z,54.00
2018-05-14T00:40:54.486Z,57.25
2018-05-14T00:41:58.710Z,63.00
2018-05-14T00:43:02.837Z,55.00
2018-05-14T00:44:06.948Z,48.50
2018-05-14T00:45:13.664Z,55.75
2018-05-14T00:46:18.138Z,53.00
2018-05-14T00:47:22.283Z,45.50
2018-05-14T00:48:26.399Z,55.75
2018-05-14T00:49:30.667Z,52.75
2018-05-14T00:50:34.760Z,53.50
2018-05-14T00:51:39.408Z,54.75
2018-05-14T00:52:44.392Z,50.50
2018-05-14T00:53:48.622Z,54.25
2018-05-14T00:55:01.521Z,58.25
2018-05-14T00:56:05.828Z,55.00
2018-05-14T00:57:09.960Z,50.75
2018-05-14T00:58:14.538Z,44.50
2018-05-14T00:59:18.664Z,53.00
2018-05-14T01:00:23.288Z,57.25
2018-05-14T01:01:27.420Z,40.50
2018-05-14T01:02:31.532Z,58.25
2018-05-14T01:03:35.654Z,52.00
2018-05-14T01:04:40.477Z,46.25
2018-05-14T01:05:44.691Z,41.00
2018-05-14T01:06:48.856Z,53.50
2018-05-14T01:07:52.998Z,43.50
2018-05-14T01:08:57.150Z,45.25
2018-05-14T01:10:01.262Z,46.00
2018-05-14T01:11:05.730Z,54.00
2018-05-14T01:12:09.823Z,52.00
2018-05-14T01:13:14.044Z,52.25
2018-05-14T01:14:18.186Z,57.50
2018-05-14T01:15:22.540Z,58.50
2018-05-14T01:16:26.732Z,40.00
2018-05-14T01:17:31.354Z,58.00
2018-05-14T01:18:36.350Z,49.00
2018-05-14T01:19:41.784Z,45.00
2018-05-14T01:20:46.328Z,57.50
2018-05-14T01:21:50.736Z,51.50
2018-05-14T01:22:55.332Z,55.00
2018-05-14T01:23:59.736Z,51.00
2018-05-14T01:25:03.962Z,53.75
2018-05-14T01:26:08.294Z,60.00
2018-05-14T01:27:12.438Z,53.00
2018-05-14T01:28:16.677Z,46.00
2018-05-14T01:29:20.817Z,47.50
2018-05-14T01:30:25.364Z,50.00
2018-05-14T01:31:30.503Z,57.25
2018-05-14T01:32:35.022Z,50.50
2018-05-14T01:33:39.166Z,51.50
2018-05-14T01:34:44.286Z,49.00
2018-05-14T01:35:48.410Z,59.25
2018-05-14T01:36:52.512Z,53.50
2018-05-14T01:37:56.760Z,52.50
2018-05-14T01:39:00.920Z,50.00
2018-05-14T01:40:05.142Z,58.75
2018-05-14T01:41:09.312Z,52.00
2018-05-14T01:42:13.428Z,51.25
2018-05-14T01:43:18.206Z,48.50
2018-05-14T01:44:22.418Z,50.75
2018-05-14T01:45:26.830Z,60.75
2018-05-14T01:46:30.971Z,53.50
2018-05-14T01:48:40.224Z,60.25
2018-05-14T01:49:45.086Z,58.00
2018-05-14T01:50:49.749Z,55.00
2018-05-14T01:51:53.864Z,48.00
2018-05-14T01:52:58.084Z,47.50
2018-05-14T01:54:02.284Z,52.00
2018-05-14T01:55:06.408Z,50.00
2018-05-14T01:56:10.908Z,57.75
2018-05-14T01:57:15.014Z,44.00
2018-05-14T01:58:19.265Z,55.00
2018-05-14T01:59:23.390Z,63.75
2018-05-14T02:00:27.942Z,52.50
2018-05-14T02:01:32.113Z,52.75
2018-05-14T02:02:36.536Z,49.00
2018-05-14T02:03:40.742Z,55.50
2018-05-14T02:04:45.594Z,54.75
2018-05-14T02:05:50.427Z,48.25
2018-05-14T02:06:54.578Z,52.00
2018-05-14T02:07:59.001Z,48.00
2018-05-14T02:09:03.308Z,50.75
2018-05-14T02:10:07.585Z,51.75
2018-05-14T02:11:11.720Z,54.00
2018-05-14T02:12:16.068Z,54.25
2018-05-14T02:13:20.268Z,48.00
2018-05-14T02:14:25.005Z,69.25
2018-05-14T02:15:29.586Z,53.25
2018-05-14T02:16:34.131Z,51.50
2018-05-14T02:17:38.731Z,50.00
2018-05-14T02:18:43.084Z,54.00
2018-05-14T02:19:47.881Z,54.25
2018-05-14T02:20:53.298Z,52.00
2018-05-14T02:21:57.426Z,54.50
2018-05-14T02:23:01.540Z,50.00
2018-05-14T02:24:05.660Z,66.25
2018-05-14T02:25:09.782Z,55.25
2018-05-14T02:26:14.002Z,60.00
2018-05-14T02:27:18.404Z,63.00
2018-05-14T02:28:22.541Z,44.50
2018-05-14T02:29:26.785Z,58.00
2018-05-14T02:30:31.425Z,68.25
2018-05-14T02:31:35.962Z,56.00
2018-05-14T02:32:40.139Z,50.00
2018-05-14T02:33:44.276Z,58.50
2018-05-14T02:34:49.362Z,60.25
2018-05-14T02:35:53.470Z,50.50
2018-05-14T02:36:57.606Z,48.00
2018-05-14T02:38:01.776Z,54.25
2018-05-14T02:39:06.681Z,49.00
2018-05-14T02:40:10.792Z,51.00
2018-05-14T02:41:14.897Z,45.00
2018-05-14T02:42:19.108Z,52.50
2018-05-14T02:43:23.216Z,42.75
2018-05-14T02:44:27.337Z,58.25
2018-05-14T02:45:32.374Z,56.50
2018-05-14T02:46:36.472Z,43.75
2018-05-14T02:47:40.708Z,47.50
2018-05-14T02:48:44.818Z,46.00
2018-05-14T02:49:49.576Z,52.75
2018-05-14T02:50:53.799Z,51.50
2018-05-14T02:51:58.249Z,47.00
2018-05-14T02:53:02.466Z,50.00
2018-05-14T02:54:06.624Z,52.50
2018-05-14T02:55:10.808Z,49.00
2018-05-14T02:56:14.941Z,47.50
2018-05-14T02:57:19.085Z,42.50
2018-05-14T02:58:23.202Z,63.50
2018-05-14T02:59:27.422Z,46.50
2018-05-14T03:00:32.288Z,50.50
2018-05-14T03:01:36.450Z,50.75
2018-05-14T03:02:41.190Z,48.50
2018-05-14T03:03:46.500Z,46.00
2018-05-14T03:04:51.530Z,54.75
2018-05-14T03:05:55.656Z,57.50
2018-05-14T03:06:59.800Z,56.50
2018-05-14T03:08:04.020Z,48.50
2018-05-14T03:09:08.170Z,49.00
2018-05-14T03:10:12.707Z,57.25
2018-05-14T03:11:16.837Z,45.75
2018-05-14T03:12:20.978Z,47.00
2018-05-14T03:13:25.115Z,44.00
2018-05-14T03:14:29.242Z,56.25
2018-05-14T03:15:33.584Z,55.25
2018-05-14T03:16:38.085Z,50.00
2018-05-14T03:17:43.086Z,45.50
2018-05-14T03:18:48.168Z,45.00
2018-05-14T03:19:52.291Z,46.00
2018-05-14T03:20:56.429Z,45.25
2018-05-14T03:22:00.570Z,50.50
2018-05-14T03:23:05.106Z,51.50
2018-05-14T03:24:09.226Z,49.00
2018-05-14T03:25:13.357Z,46.50
2018-05-14T03:26:17.616Z,46.00
2018-05-14T03:27:21.778Z,39.00
2018-05-14T03:28:25.911Z,49.50
2018-05-14T03:29:30.343Z,49.00
2018-05-14T03:30:34.790Z,51.00
2018-05-14T03:31:39.002Z,40.50
2018-05-14T03:32:43.618Z,51.50
2018-05-14T03:33:47.957Z,46.75
2018-05-14T03:34:53.004Z,50.00
2018-05-14T03:35:57.110Z,45.25
2018-05-14T03:37:01.337Z,47.25
2018-05-14T03:38:05.464Z,50.00
2018-05-14T03:39:09.673Z,40.75
2018-05-14T03:40:13.820Z,44.25
2018-05-14T03:41:18.333Z,55.00
2018-05-14T03:42:22.550Z,54.75
2018-05-14T03:43:26.678Z,42.75
2018-05-14T03:44:30.798Z,48.50
2018-05-14T03:45:35.447Z,48.00
2018-05-14T03:46:39.673Z,44.50
2018-05-14T03:47:44.927Z,48.50
2018-05-14T03:48:49.139Z,49.00
2018-05-14T03:49:54.211Z,40.75
2018-05-14T03:50:58.347Z,48.00
2018-05-14T03:52:02.480Z,48.00
2018-05-14T03:53:06.641Z,53.50
2018-05-14T03:54:10.855Z,46.00
2018-05-14T03:55:14.998Z,48.25
2018-05-14T03:56:19.132Z,46.50
2018-05-14T03:57:23.236Z,37.00
2018-05-14T03:58:36.153Z,39.00
2018-05-14T04:01:55.284Z,44.00
2018-05-14T04:03:10.260Z,44.75
2018-05-14T04:05:22.134Z,41.00
2018-05-14T04:06:34.038Z,41.50
2018-05-14T04:07:38.149Z,39.00
2018-05-14T04:08:42.381Z,47.50
2018-05-14T04:09:46.579Z,43.00
2018-05-14T04:10:50.692Z,41.50
2018-05-14T04:11:54.848Z,46.50
2018-05-14T04:12:59.296Z,49.75
2018-05-14T04:14:03.502Z,46.25
2018-05-14T04:15:07.654Z,37.00
2018-05-14T04:16:11.801Z,38.00
2018-05-14T04:17:16.074Z,46.50
2018-05-14T04:18:20.221Z,35.50
2018-05-14T04:19:24.336Z,42.75
2018-05-14T04:20:28.540Z,44.00
2018-05-14T04:21:32.665Z,42.75
2018-05-14T04:22:36.928Z,38.00
2018-05-14T04:23:41.128Z,42.00
2018-05-14T04:24:45.304Z,40.50
2018-05-14T04:25:50.572Z,40.50
2018-05-14T04:26:54.731Z,40.00
2018-05-14T04:27:58.852Z,43.25
2018-05-14T04:29:02.994Z,43.00
2018-05-14T04:30:07.365Z,39.00
2018-05-14T04:31:11.864Z,44.75
2018-05-14T04:32:16.411Z,45.00
2018-05-14T04:33:20.591Z,41.00
2018-05-14T04:34:24.702Z,36.50
2018-05-14T04:35:28.990Z,47.50
2018-05-14T04:36:33.095Z,39.25
2018-05-14T04:37:37.202Z,42.00
2018-05-14T04:38:41.626Z,41.00
2018-05-14T04:39:46.034Z,40.25
2018-05-14T04:40:50.758Z,36.50
2018-05-14T04:41:54.908Z,37.00
2018-05-14T04:42:59.060Z,42.75
2018-05-14T04:44:03.174Z,42.25
2018-05-14T04:45:07.750Z,45.00
2018-05-14T04:46:11.904Z,42.75
2018-05-14T04:47:16.036Z,37.25
2018-05-14T04:48:20.242Z,48.00
2018-05-14T04:49:24.647Z,35.75
2018-05-14T04:50:28.834Z,38.50
2018-05-14T04:51:32.950Z,40.50
2018-05-14T04:52:37.096Z,46.25
2018-05-14T04:53:41.202Z,45.25
2018-05-14T04:54:45.874Z,41.75
2018-05-14T04:55:51.296Z,51.00
2018-05-14T04:56:55.508Z,44.50
2018-05-14T04:57:59.688Z,45.75
2018-05-14T04:59:03.868Z,39.25
2018-05-14T05:00:08.181Z,44.50
2018-05-14T05:01:12.303Z,44.00
2018-05-14T05:02:16.750Z,41.50
2018-05-14T05:03:20.962Z,35.00
2018-05-14T05:04:25.098Z,42.00
2018-05-14T05:05:29.205Z,33.50
2018-05-14T05:06:33.333Z,39.50
2018-05-14T05:07:37.539Z,38.75
2018-05-14T05:08:41.935Z,41.00
2018-05-14T05:09:46.857Z,41.25
2018-05-14T05:10:51.792Z,41.50
2018-05-14T05:11:55.922Z,45.50
2018-05-14T05:13:00.184Z,49.25
2018-05-14T05:14:04.287Z,47.50
2018-05-14T05:15:08.670Z,51.50
2018-05-14T05:16:12.973Z,48.00
2018-05-14T05:17:17.277Z,48.50
2018-05-14T05:18:21.689Z,46.00
2018-05-14T05:19:25.942Z,47.00
2018-05-14T05:20:30.099Z,40.50
2018-05-14T05:21:34.565Z,47.25
2018-05-14T05:22:38.771Z,44.75
2018-05-14T05:23:43.846Z,40.50
2018-05-14T05:24:47.968Z,45.25
2018-05-14T05:25:52.721Z,48.00
2018-05-14T05:26:56.869Z,41.75
2018-05-14T05:28:01.423Z,45.00
2018-05-14T05:29:05.565Z,43.00
2018-05-14T05:30:09.845Z,40.50
2018-05-14T05:31:14.349Z,52.75
2018-05-14T05:32:18.547Z,46.00
2018-05-14T05:33:22.674Z,50.00
2018-05-14T05:34:27.145Z,49.00
2018-05-14T05:35:31.264Z,47.00
2018-05-14T05:36:35.460Z,48.50
2018-05-14T05:37:39.626Z,45.00
2018-05-14T05:38:44.881Z,46.00
2018-05-14T05:39:48.989Z,39.00
2018-05-14T05:40:53.557Z,45.50
2018-05-14T05:41:57.685Z,48.00
2018-05-14T05:43:01.839Z,46.00
2018-05-14T05:44:06.056Z,52.75
2018-05-14T05:45:10.525Z,53.50
2018-05-14T05:46:15.391Z,49.25
2018-05-14T05:47:19.637Z,45.00
2018-05-14T05:48:23.775Z,47.75
2018-05-14T05:49:27.914Z,39.50
2018-05-14T05:50:32.115Z,46.00
2018-05-14T05:51:36.254Z,41.50
2018-05-14T05:52:40.713Z,48.50
2018-05-14T05:53:45.552Z,44.75
2018-05-14T05:54:49.737Z,39.00
2018-05-14T05:55:53.909Z,41.00
2018-05-14T05:56:58.038Z,37.00
2018-05-14T05:58:02.174Z,47.50
2018-05-14T05:59:06.613Z,46.00
2018-05-14T06:00:15.212Z,50.25
2018-05-14T06:01:19.386Z,48.25
2018-05-14T06:02:23.510Z,43.50
2018-05-14T06:03:27.662Z,51.00
2018-05-14T06:04:31.816Z,42.50
2018-05-14T06:05:36.004Z,50.75
2018-05-14T06:06:40.130Z,49.00
2018-05-14T06:07:44.282Z,42.75
2018-05-14T06:08:48.406Z,37.75
2018-05-14T06:09:52.608Z,39.50
2018-05-14T06:10:57.344Z,44.75
2018-05-14T06:12:01.851Z,46.50
2018-05-14T06:13:05.972Z,37.00
2018-05-14T06:14:10.134Z,49.00
2018-05-14T06:15:15.636Z,51.75
2018-05-14T06:16:19.802Z,48.75
2018-05-14T06:17:24.070Z,46.50
2018-05-14T06:18:28.507Z,49.00
2018-05-14T06:19:32.636Z,56.00
2018-05-14T06:20:36.780Z,38.00
2018-05-14T06:21:41.004Z,46.25
2018-05-14T06:22:46.991Z,43.50
2018-05-14T06:23:51.122Z,42.25
2018-05-14T06:24:56.188Z,45.50
2018-05-14T06:26:00.338Z,44.50
2018-05-14T06:27:04.498Z,47.75
2018-05-14T06:28:08.727Z,39.00
2018-05-14T06:29:12.890Z,41.00
2018-05-14T06:30:17.472Z,54.50
2018-05-14T06:31:21.938Z,48.25
2018-05-14T06:32:26.109Z,43.00
2018-05-14T06:33:30.246Z,37.50
2018-05-14T06:34:34.448Z,49.00
2018-05-14T06:35:38.687Z,39.50
2018-05-14T06:36:43.586Z,41.50
2018-05-14T06:37:47.855Z,38.50
2018-05-14T06:38:52.090Z,46.75
2018-05-14T06:39:57.250Z,42.00
2018-05-14T06:41:01.415Z,43.75
2018-05-14T06:42:05.604Z,44.50
2018-05-14T06:43:10.202Z,45.50
2018-05-14T06:44:14.532Z,42.75
2018-05-14T06:45:19.136Z,46.50
2018-05-14T06:46:23.791Z,43.50
2018-05-14T06:47:27.944Z,47.75
2018-05-14T06:48:32.058Z,34.50
2018-05-14T06:49:36.490Z,41.50
2018-05-14T06:50:40.744Z,41.25
2018-05-14T06:51:45.141Z,42.25
2018-05-14T06:52:49.300Z,43.25
2018-05-14T06:53:53.418Z,44.25
2018-05-14T06:54:57.512Z,51.50
2018-05-14T06:56:01.658Z,37.25
2018-05-14T06:57:05.901Z,39.25
2018-05-14T06:58:10.040Z,29.00
2018-05-14T06:59:14.231Z,37.00
2018-05-14T07:00:18.486Z,48.25
2018-05-14T07:01:23.004Z,42.50
2018-05-14T07:02:27.496Z,47.50
2018-05-14T07:03:31.645Z,34.25
2018-05-14T07:04:35.778Z,42.25
2018-05-14T07:05:39.921Z,40.25
2018-05-14T07:06:44.859Z,41.25
2018-05-14T07:07:49.084Z,46.50
2018-05-14T07:08:54.368Z,37.00
2018-05-14T07:09:58.524Z,39.75
2018-05-14T07:11:02.729Z,44.25
2018-05-14T07:12:06.944Z,37.75
2018-05-14T07:13:11.101Z,41.75
2018-05-14T07:14:15.216Z,35.00
2018-05-14T07:15:19.819Z,41.75
2018-05-14T07:16:23.950Z,45.00
2018-05-14T07:17:28.075Z,39.25
2018-05-14T07:18:32.275Z,42.50
2018-05-14T07:19:36.484Z,35.00
2018-05-14T07:20:40.609Z,36.25
2018-05-14T07:21:45.718Z,32.50
2018-05-14T07:22:50.425Z,46.00
2018-05-14T07:23:55.295Z,48.75
2018-05-14T07:24:59.416Z,41.75
2018-05-14T07:26:03.580Z,48.25
2018-05-14T07:27:08.102Z,44.25
2018-05-14T07:28:13.060Z,47.00
2018-05-14T07:29:17.266Z,42.75
2018-05-14T07:30:21.787Z,49.50
2018-05-14T07:31:25.932Z,40.25
2018-05-14T07:32:30.292Z,46.50
2018-05-14T07:33:35.542Z,41.50
2018-05-14T07:34:39.838Z,44.50
2018-05-14T07:35:44.764Z,54.50
2018-05-14T07:36:48.880Z,35.00
2018-05-14T07:37:53.892Z,43.75
2018-05-14T07:38:58.102Z,47.75
2018-05-14T07:40:02.640Z,40.00
2018-05-14T07:41:06.747Z,45.75
2018-05-14T07:42:10.972Z,44.50
2018-05-14T07:43:15.117Z,41.50
2018-05-14T07:44:19.299Z,33.00
2018-05-14T07:45:23.426Z,46.00
2018-05-14T07:46:27.840Z,46.25
2018-05-14T07:47:32.112Z,43.00
2018-05-14T07:48:36.258Z,40.00
2018-05-14T07:49:40.398Z,36.25
2018-05-14T07:50:44.632Z,39.75
2018-05-14T07:51:49.314Z,37.00
2018-05-14T07:52:53.752Z,43.25
2018-05-14T07:53:57.888Z,38.25
2018-05-14T07:55:02.020Z,34.00
2018-05-14T07:56:06.234Z,38.50
2018-05-14T07:57:10.404Z,35.50
2018-05-14T07:58:14.589Z,39.75
2018-05-14T07:59:19.021Z,40.50
2018-05-14T08:00:23.469Z,35.00
2018-05-14T08:01:27.675Z,36.00
2018-05-14T08:02:31.834Z,39.75
2018-05-14T08:03:35.992Z,36.50
2018-05-14T08:04:40.128Z,44.25
2018-05-14T08:05:44.602Z,34.00
2018-05-14T08:06:48.822Z,35.00
2018-05-14T08:07:52.992Z,35.25
2018-05-14T08:08:57.811Z,36.00
2018-05-14T08:10:01.953Z,40.00
2018-05-14T08:11:06.080Z,38.00
2018-05-14T08:12:10.328Z,34.75
2018-05-14T08:13:14.472Z,40.00
2018-05-14T08:14:18.652Z,36.75
2018-05-14T08:15:23.095Z,33.00
2018-05-14T08:16:27.219Z,35.00
2018-05-14T08:17:31.441Z,37.75
2018-05-14T08:18:35.605Z,38.75
2018-05-14T08:19:39.774Z,39.00
2018-05-14T08:20:44.000Z,45.75
2018-05-14T08:21:48.168Z,42.50
2018-05-14T08:22:52.648Z,39.25
2018-05-14T08:23:56.824Z,33.50
2018-05-14T08:25:00.986Z,36.75
2018-05-14T08:26:05.241Z,34.00
2018-05-14T08:27:09.374Z,34.25
2018-05-14T08:28:13.585Z,42.25
2018-05-14T08:29:17.950Z,43.50
2018-05-14T08:30:22.141Z,38.75
2018-05-14T08:31:26.262Z,33.00
2018-05-14T08:32:30.484Z,40.75
2018-05-14T08:33:34.704Z,40.75
2018-05-14T08:34:39.199Z,42.25
2018-05-14T08:35:43.341Z,32.00
2018-05-14T08:36:47.571Z,34.50
2018-05-14T08:37:51.714Z,35.00
2018-05-14T08:38:55.844Z,35.00
2018-05-14T08:40:00.099Z,33.75
2018-05-14T08:41:04.551Z,30.50
2018-05-14T08:42:08.685Z,36.00
2018-05-14T08:43:12.911Z,32.25
2018-05-14T08:44:17.036Z,39.00
2018-05-14T08:45:21.238Z,42.25
2018-05-14T08:46:25.842Z,36.75
2018-05-14T08:47:30.441Z,44.50
2018-05-14T08:48:34.545Z,40.50
2018-05-14T08:49:38.933Z,32.25
2018-05-14T08:50:42.967Z,29.25
2018-05-14T08:51:48.027Z,39.50
2018-05-14T08:52:52.814Z,36.00
2018-05-14T08:53:56.960Z,35.75
2018-05-14T08:55:01.105Z,36.25
2018-05-14T08:56:05.333Z,37.00
2018-05-14T08:57:09.785Z,40.50
2018-05-14T08:58:13.914Z,38.00
2018-05-14T08:59:18.036Z,32.00
2018-05-14T09:00:22.230Z,44.50
2018-05-14T09:01:26.447Z,37.00
2018-05-14T09:02:30.686Z,31.75
2018-05-14T09:03:35.143Z,37.00
2018-05-14T09:04:39.270Z,30.50
2018-05-14T09:05:43.426Z,38.25
2018-05-14T09:06:47.646Z,34.00
2018-05-14T09:07:51.813Z,33.50
2018-05-14T09:08:56.021Z,31.50
2018-05-14T09:10:00.477Z,34.50
2018-05-14T09:11:04.680Z,31.00
2018-05-14T09:12:08.818Z,34.00
2018-05-14T09:13:12.969Z,32.00
2018-05-14T09:14:17.128Z,36.00
2018-05-14T09:15:21.367Z,34.50
2018-05-14T09:16:25.802Z,34.50
2018-05-14T09:17:29.935Z,30.25
2018-05-14T09:18:34.089Z,33.00
2018-05-14T09:19:38.252Z,32.75
2018-05-14T09:20:42.498Z,30.25
2018-05-14T09:21:46.759Z,35.50
2018-05-14T09:22:50.889Z,35.75
2018-05-14T09:23:55.024Z,31.75
2018-05-14T09:24:59.189Z,31.50
2018-05-14T09:26:03.374Z,36.25
2018-05-14T09:27:07.818Z,29.00
2018-05-14T09:28:11.930Z,43.25
2018-05-14T09:29:16.136Z,37.00
2018-05-14T09:30:20.444Z,36.75
2018-05-14T09:31:25.014Z,36.75
2018-05-14T09:32:29.568Z,27.75
2018-05-14T09:33:35.715Z,35.25
2018-05-14T09:34:40.084Z,38.50
2018-05-14T09:35:44.368Z,33.00
2018-05-14T09:36:48.747Z,36.50
2018-05-14T09:37:53.964Z,39.25
2018-05-14T09:38:59.002Z,38.00
2018-05-14T09:40:03.526Z,29.00
2018-05-14T09:41:07.742Z,29.25
2018-05-14T09:42:11.848Z,34.00
2018-05-14T09:43:16.071Z,32.50
2018-05-14T09:44:20.282Z,35.75
2018-05-14T09:45:24.604Z,35.25
2018-05-14T09:46:29.382Z,36.25
2018-05-14T09:47:33.533Z,32.75
2018-05-14T09:48:37.766Z,37.25
2018-05-14T09:49:41.957Z,29.50
2018-05-14T09:50:46.060Z,30.75
2018-05-14T09:51:50.734Z,31.00
2018-05-14T09:52:54.860Z,36.75
2018-05-14T09:53:59.121Z,33.25
2018-05-14T09:55:03.316Z,37.00
2018-05-14T09:56:07.439Z,34.00
2018-05-14T09:57:11.802Z,33.25
2018-05-14T09:58:15.918Z,37.00
2018-05-14T09:59:20.422Z,32.00
2018-05-14T10:00:24.907Z,34.00
2018-05-14T10:01:29.010Z,37.75
2018-05-14T10:02:33.122Z,33.50
2018-05-14T10:03:37.336Z,35.25
2018-05-14T10:04:41.558Z,33.00
2018-05-14T10:05:46.005Z,33.25
2018-05-14T10:06:50.269Z,34.75
2018-05-14T10:07:55.401Z,35.25
2018-05-14T10:08:59.540Z,36.50
2018-05-14T10:10:03.798Z,32.25
2018-05-14T10:11:07.952Z,35.00
2018-05-14T10:12:12.468Z,29.00
2018-05-14T10:13:16.649Z,36.00
2018-05-14T10:14:20.783Z,29.00
2018-05-14T10:15:25.266Z,64.00
2018-05-14T10:16:29.524Z,38.50
2018-05-14T10:17:34.050Z,36.00
2018-05-14T10:18:38.847Z,39.25
2018-05-14T10:19:43.166Z,38.50
2018-05-14T10:20:47.564Z,35.75
2018-05-14T10:21:52.271Z,31.50
2018-05-14T10:22:57.524Z,36.50
2018-05-14T10:24:01.804Z,33.00
2018-05-14T10:25:06.264Z,29.00
2018-05-14T10:26:10.400Z,34.00
2018-05-14T10:27:14.542Z,35.75
2018-05-14T10:28:18.669Z,35.50
2018-05-14T10:29:22.858Z,29.25
2018-05-14T10:30:27.266Z,34.75
2018-05-14T10:31:31.730Z,28.00
2018-05-14T10:32:35.856Z,31.75
2018-05-14T10:33:40.116Z,30.25
2018-05-14T10:34:44.348Z,28.50
2018-05-14T10:35:48.497Z,29.00
2018-05-14T10:36:52.647Z,30.50
2018-05-14T10:37:56.803Z,31.00
2018-05-14T10:39:00.916Z,32.50
2018-05-14T10:40:05.684Z,33.00
2018-05-14T10:41:09.898Z,33.50
2018-05-14T10:42:14.016Z,36.25
2018-05-14T10:43:18.448Z,30.50
2018-05-14T10:44:22.652Z,34.75
2018-05-14T10:45:27.372Z,35.75
2018-05-14T10:46:31.604Z,35.25
2018-05-14T10:47:49.704Z,38.75
2018-05-14T10:48:55.846Z,39.00
2018-05-14T10:50:01.042Z,41.50
2018-05-14T10:51:05.926Z,31.50
2018-05-14T10:52:10.092Z,33.00
2018-05-14T10:53:14.209Z,38.00
2018-05-14T10:54:19.221Z,39.75
2018-05-14T10:55:23.994Z,34.75
2018-05-14T10:56:28.146Z,35.75
2018-05-14T10:57:32.443Z,34.50
2018-05-14T10:58:36.713Z,29.75
2018-05-14T10:59:40.838Z,27.00
2018-05-14T11:00:45.133Z,35.00
2018-05-14T11:01:49.592Z,29.00
2018-05-14T11:02:53.811Z,30.50
2018-05-14T11:03:58.637Z,33.75
2018-05-14T11:05:04.421Z,29.50
2018-05-14T11:06:08.646Z,29.00
2018-05-14T11:07:13.461Z,30.00
2018-05-14T11:08:17.696Z,28.50
2018-05-14T11:09:21.881Z,27.25
2018-05-14T11:10:26.046Z,34.00
2018-05-14T11:11:30.215Z,31.50
2018-05-14T11:12:34.416Z,32.00
2018-05-14T11:13:38.578Z,31.75
2018-05-14T11:14:43.064Z,34.00
2018-05-14T11:15:47.526Z,32.50
2018-05-14T11:16:52.181Z,40.00
2018-05-14T11:17:57.444Z,35.50
2018-05-14T11:19:02.014Z,33.00
2018-05-14T11:20:06.161Z,32.25
2018-05-14T11:21:10.612Z,37.75
2018-05-14T11:22:14.872Z,34.50
2018-05-14T11:23:19.102Z,31.50
2018-05-14T11:24:23.242Z,33.00
2018-05-14T11:25:27.508Z,32.00
2018-05-14T11:26:31.643Z,34.00
2018-05-14T11:27:36.177Z,34.00
2018-05-14T11:28:40.317Z,33.00
2018-05-14T11:29:44.601Z,25.00
2018-05-14T11:30:48.972Z,37.50
2018-05-14T11:31:53.514Z,30.75
2018-05-14T11:32:57.718Z,27.75
2018-05-14T11:34:02.880Z,31.75
2018-05-14T11:35:07.686Z,31.00
2018-05-14T11:36:11.884Z,31.50
2018-05-14T11:37:16.008Z,32.75
2018-05-14T11:38:20.198Z,28.50
2018-05-14T11:39:24.411Z,36.00
2018-05-14T11:40:28.581Z,29.75
2018-05-14T11:41:32.795Z,25.50
2018-05-14T11:42:36.940Z,29.00
2018-05-14T11:43:41.512Z,28.25
2018-05-14T11:44:45.707Z,29.50
2018-05-14T11:45:49.868Z,36.75
2018-05-14T11:46:54.012Z,30.50
2018-05-14T11:47:58.146Z,33.25
2018-05-14T11:49:03.149Z,27.50
2018-05-14T11:50:07.650Z,33.50
2018-05-14T11:51:11.874Z,30.25
2018-05-14T11:53:16.442Z,35.00
2018-05-14T11:54:21.319Z,29.25
2018-05-14T11:55:26.440Z,30.00
2018-05-14T11:56:31.003Z,30.25
2018-05-14T11:57:35.193Z,35.75
2018-05-14T11:58:39.317Z,34.00
2018-05-14T11:59:43.563Z,33.75
2018-05-14T12:00:47.893Z,39.50
2018-05-14T12:01:52.166Z,36.50
2018-05-14T12:02:56.574Z,43.75
2018-05-14T12:04:01.257Z,32.50
2018-05-14T12:05:05.380Z,31.00
2018-05-14T12:06:09.527Z,35.00
2018-05-14T12:07:13.763Z,31.75
2018-05-14T12:08:17.905Z,36.75
2018-05-14T12:09:22.350Z,39.50
2018-05-14T12:10:26.494Z,33.00
2018-05-14T12:11:30.730Z,31.25
2018-05-14T12:12:34.892Z,30.00
2018-05-14T12:13:39.008Z,31.00
2018-05-14T12:14:43.221Z,31.50
2018-05-14T12:15:47.921Z,28.00
2018-05-14T12:16:52.184Z,30.25
2018-05-14T12:17:56.777Z,32.00
2018-05-14T12:19:00.942Z,35.00
2018-05-14T12:20:05.102Z,32.75
2018-05-14T12:21:09.363Z,30.50
2018-05-14T12:22:13.917Z,29.25
2018-05-14T12:23:18.079Z,33.25
2018-05-14T12:24:22.339Z,32.00
2018-05-14T12:25:26.473Z,38.25
2018-05-14T12:26:30.644Z,31.75
2018-05-14T12:27:34.870Z,42.25
2018-05-14T12:28:39.007Z,34.50
2018-05-14T12:29:43.176Z,26.75
2018-05-14T12:30:47.613Z,33.00
2018-05-14T12:31:52.121Z,38.25
2018-05-14T12:32:56.348Z,33.50
2018-05-14T12:34:01.640Z,30.50
2018-05-14T12:35:06.134Z,28.50
2018-05-14T12:36:10.246Z,29.00
2018-05-14T12:37:14.416Z,27.00
2018-05-14T12:38:18.633Z,28.25
2018-05-14T12:39:22.805Z,26.25
2018-05-14T12:40:27.283Z,29.25
2018-05-14T12:41:31.543Z,33.25
2018-05-14T12:42:35.781Z,40.00
2018-05-14T12:43:39.965Z,31.50
2018-05-14T12:44:44.250Z,33.25
2018-05-14T12:45:48.734Z,35.00
2018-05-14T12:46:53.542Z,29.00
2018-05-14T12:47:57.899Z,33.50
2018-05-14T12:49:02.881Z,32.25
2018-05-14T12:50:07.059Z,31.00
2018-05-14T12:51:11.267Z,33.00
2018-05-14T12:52:15.433Z,32.00
2018-05-14T12:53:19.587Z,39.00
2018-05-14T12:54:23.876Z,29.50
2018-05-14T12:55:27.981Z,31.25
2018-05-14T12:56:32.231Z,33.50
2018-05-14T12:57:36.413Z,31.25
2018-05-14T12:58:40.636Z,26.25
2018-05-14T12:59:45.090Z,29.25
2018-05-14T13:00:49.569Z,38.25
2018-05-14T13:01:55.090Z,31.75
2018-05-14T13:03:00.339Z,31.00
2018-05-14T13:04:04.509Z,36.00
2018-05-14T13:05:08.645Z,24.75
2018-05-14T13:06:13.292Z,31.50
2018-05-14T13:07:17.466Z,31.25
2018-05-14T13:08:21.674Z,30.00
2018-05-14T13:09:25.955Z,31.50
2018-05-14T13:10:30.119Z,33.00
2018-05-14T13:11:34.266Z,30.75
2018-05-14T13:12:38.801Z,29.75
2018-05-14T13:13:42.977Z,28.75
2018-05-14T13:14:47.223Z,25.75
2018-05-14T13:15:51.648Z,30.75
2018-05-14T13:16:55.784Z,32.00
2018-05-14T13:17:59.943Z,32.00
2018-05-14T13:19:05.132Z,30.50
2018-05-14T13:20:09.414Z,31.50
2018-05-14T13:21:13.623Z,30.25
2018-05-14T13:22:17.762Z,32.00
2018-05-14T13:23:21.992Z,35.50
2018-05-14T13:24:26.122Z,32.00
2018-05-14T13:25:30.431Z,29.75
2018-05-14T13:26:34.603Z,26.25
2018-05-14T13:27:38.824Z,24.00
2018-05-14T13:28:43.003Z,27.00
2018-05-14T13:29:47.219Z,30.50
2018-05-14T13:30:52.030Z,32.25
2018-05-14T13:31:56.400Z,30.00
2018-05-14T13:33:00.500Z,28.50
2018-05-14T13:34:05.142Z,25.25
2018-05-14T13:35:09.362Z,35.00
2018-05-14T13:36:13.529Z,35.75
2018-05-14T13:37:18.119Z,33.50
2018-05-14T13:38:22.267Z,31.00
2018-05-14T13:39:26.434Z,30.75
2018-05-14T13:40:30.584Z,29.50
2018-05-14T13:41:34.931Z,29.25
2018-05-14T13:42:39.246Z,30.25
2018-05-14T13:43:43.480Z,28.00
2018-05-14T13:44:47.723Z,27.00
2018-05-14T13:45:52.116Z,33.50
2018-05-14T13:46:56.768Z,31.00
2018-05-14T13:48:00.966Z,27.25
2018-05-14T13:49:05.205Z,31.75
2018-05-14T13:50:09.712Z,28.75
2018-05-14T13:51:13.855Z,31.00
2018-05-14T13:52:18.012Z,34.25
2018-05-14T13:53:22.122Z,30.50
2018-05-14T13:54:26.370Z,33.25